createdAt,value
2022-10-13T00:01:23.655Z,53.70
2022-10-13T00:03:54.785Z,53.67
2022-10-13T00:06:26.591Z,53.74
2022-10-13T00:08:57.295Z,53.69
2022-10-13T00:11:28.439Z,53.94
2022-10-13T00:13:58.702Z,53.74
2022-10-13T00:16:28.454Z,53.73
2022-10-13T00:19:01.259Z,53.82
2022-10-13T00:21:30.414Z,53.71
2022-10-13T00:23:59.033Z,53.61
2022-10-13T00:26:28.316Z,53.93
2022-10-13T00:28:56.822Z,53.70
2022-10-13T00:31:26.971Z,54.06
2022-10-13T00:33:55.784Z,53.83
2022-10-13T00:36:27.467Z,53.84
2022-10-13T00:38:56.182Z,53.86
2022-10-13T00:41:24.737Z,53.81
2022-10-13T00:44:00.150Z,53.72
2022-10-13T00:46:30.953Z,53.84
2022-10-13T00:49:02.178Z,53.79
2022-10-13T00:51:36.046Z,53.80
2022-10-13T00:54:07.343Z,53.84
2022-10-13T00:56:40.172Z,53.89
2022-10-13T00:59:14.306Z,53.52
2022-10-13T01:01:42.882Z,53.59
2022-10-13T01:04:11.958Z,53.68
2022-10-13T01:06:42.621Z,53.89
2022-10-13T01:09:10.899Z,53.77
2022-10-13T01:11:57.563Z,53.66
2022-10-13T01:14:33.186Z,53.86
2022-10-13T01:17:09.033Z,53.78
2022-10-13T01:20:06.143Z,53.67
2022-10-13T01:22:49.105Z,53.70
2022-10-13T01:25:35.287Z,54.02
2022-10-13T01:28:29.689Z,53.75
2022-10-13T01:31:03.697Z,53.86
2022-10-13T01:33:43.688Z,53.71
2022-10-13T01:36:21.210Z,54.01
2022-10-13T01:38:57.509Z,53.61
2022-10-13T01:41:30.992Z,53.71
2022-10-13T01:44:05.424Z,53.80
2022-10-13T01:46:38.242Z,53.60
2022-10-13T01:49:08.927Z,53.60
2022-10-13T01:51:38.169Z,53.85
2022-10-13T01:54:06.379Z,53.64
2022-10-13T01:56:34.477Z,54.00
2022-10-13T01:59:08.003Z,53.70
2022-10-13T02:01:57.674Z,53.96
2022-10-13T02:04:38.591Z,53.75
2022-10-13T02:07:15.530Z,53.96
2022-10-13T02:09:52.999Z,53.64
2022-10-13T02:12:27.770Z,53.74
2022-10-13T02:14:58.790Z,53.70
2022-10-13T02:17:30.026Z,53.79
2022-10-13T02:19:59.789Z,53.74
2022-10-13T02:22:33.014Z,53.88
2022-10-13T02:25:01.745Z,53.88
2022-10-13T02:27:30.129Z,53.93
2022-10-13T02:29:59.661Z,53.83
2022-10-13T02:32:29.718Z,53.68
2022-10-13T02:34:58.594Z,53.64
2022-10-13T02:37:27.186Z,53.89
2022-10-13T02:39:56.118Z,54.02
2022-10-13T02:42:24.555Z,53.98
2022-10-13T02:44:52.973Z,54.00
2022-10-13T02:47:21.538Z,53.66
2022-10-13T02:49:51.180Z,53.83
2022-10-13T02:52:19.707Z,53.86
2022-10-13T02:54:48.805Z,53.85
2022-10-13T02:57:17.348Z,53.70
2022-10-13T02:59:46.253Z,53.94
2022-10-13T03:02:14.559Z,53.91
2022-10-13T03:04:43.051Z,53.92
2022-10-13T03:07:15.196Z,53.71
2022-10-13T03:09:43.782Z,53.94
2022-10-13T03:12:12.077Z,53.77
2022-10-13T03:14:40.251Z,53.81
2022-10-13T03:17:13.283Z,53.63
2022-10-13T03:19:41.926Z,53.62
2022-10-13T03:22:10.557Z,53.80
2022-10-13T03:24:40.359Z,53.87
2022-10-13T03:27:08.982Z,53.86
2022-10-13T03:29:37.244Z,53.65
2022-10-13T03:32:07.140Z,53.70
2022-10-13T03:34:35.741Z,53.73
2022-10-13T03:37:06.128Z,53.94
2022-10-13T03:39:34.290Z,53.82
2022-10-13T03:42:04.152Z,53.65
2022-10-13T03:44:32.558Z,53.68
2022-10-13T03:47:03.440Z,53.84
2022-10-13T03:49:31.949Z,53.69
2022-10-13T03:52:01.274Z,53.63
2022-10-13T03:54:29.994Z,53.91
2022-10-13T03:56:58.272Z,53.70
2022-10-13T03:59:34.209Z,53.75
2022-10-13T04:02:04.674Z,53.54
2022-10-13T04:04:32.874Z,53.81
2022-10-13T04:07:00.994Z,53.62
2022-10-13T04:09:29.405Z,53.87
2022-10-13T04:11:57.582Z,53.88
2022-10-13T04:14:27.253Z,53.65
2022-10-13T04:16:55.569Z,53.71
2022-10-13T04:19:23.844Z,53.77
2022-10-13T04:21:52.086Z,53.55
2022-10-13T04:24:20.240Z,53.91
2022-10-13T04:26:48.900Z,53.73
2022-10-13T04:29:17.446Z,53.83
2022-10-13T04:31:47.573Z,53.98
2022-10-13T04:34:16.169Z,53.92
2022-10-13T04:36:44.786Z,53.82
2022-10-13T04:39:13.034Z,53.85
2022-10-13T04:41:41.358Z,53.88
2022-10-13T04:44:10.206Z,53.68
2022-10-13T04:46:38.451Z,54.01
2022-10-13T04:49:08.321Z,53.86
2022-10-13T04:51:36.556Z,53.79
2022-10-13T04:54:05.885Z,53.91
2022-10-13T04:56:34.087Z,53.95
2022-10-13T04:59:02.560Z,53.71
2022-10-13T05:01:30.768Z,53.96
2022-10-13T05:04:00.710Z,53.93
2022-10-13T05:06:32.719Z,53.86
2022-10-13T05:09:01.426Z,53.73
2022-10-13T05:11:30.520Z,53.80
2022-10-13T05:13:59.857Z,53.95
2022-10-13T05:16:29.430Z,53.65
2022-10-13T05:18:57.890Z,53.87
2022-10-13T05:21:27.864Z,53.55
2022-10-13T05:24:00.164Z,53.69
2022-10-13T05:26:32.557Z,53.67
2022-10-13T05:29:02.658Z,53.91
2022-10-13T05:31:33.167Z,53.66
2022-10-13T05:34:02.320Z,53.89
2022-10-13T05:36:32.730Z,53.88
2022-10-13T05:39:04.534Z,53.75
2022-10-13T05:41:33.437Z,53.96
2022-10-13T05:44:04.242Z,53.89
2022-10-13T05:46:32.704Z,53.96
2022-10-13T05:49:00.911Z,53.67
2022-10-13T05:51:33.763Z,53.88
2022-10-13T05:54:08.668Z,53.91
2022-10-13T05:56:41.483Z,53.79
2022-10-13T05:59:14.028Z,53.70
2022-10-13T06:01:43.562Z,53.86
2022-10-13T06:04:16.315Z,53.79
2022-10-13T06:06:44.901Z,53.72
2022-10-13T06:09:15.072Z,53.70
2022-10-13T06:11:43.452Z,54.01
2022-10-13T06:14:11.623Z,53.97
2022-10-13T06:16:41.471Z,53.96
2022-10-13T06:19:09.953Z,53.82
2022-10-13T06:21:38.371Z,53.96
2022-10-13T06:24:07.090Z,53.91
2022-10-13T06:26:36.637Z,53.91
2022-10-13T06:29:05.239Z,53.92
2022-10-13T06:31:33.563Z,54.00
2022-10-13T06:34:01.820Z,53.82
2022-10-13T06:36:30.242Z,53.74
2022-10-13T06:38:58.463Z,53.96
2022-10-13T06:41:27.273Z,53.88
2022-10-13T06:43:56.831Z,53.89
2022-10-13T06:46:24.965Z,53.80
2022-10-13T06:48:53.714Z,53.96
2022-10-13T06:51:21.819Z,53.93
2022-10-13T06:53:49.912Z,53.94
2022-10-13T06:56:18.146Z,53.80
2022-10-13T06:58:46.243Z,53.98
2022-10-13T07:01:16.774Z,53.73
2022-10-13T07:03:44.882Z,53.75
2022-10-13T07:06:13.033Z,53.82
2022-10-13T07:08:41.482Z,53.73
2022-10-13T07:11:15.853Z,53.76
2022-10-13T07:13:46.663Z,53.78
2022-10-13T07:16:18.189Z,53.92
2022-10-13T07:18:48.694Z,53.65
2022-10-13T07:21:18.250Z,53.74
2022-10-13T07:23:48.941Z,53.98
2022-10-13T07:26:17.594Z,53.76
2022-10-13T07:28:46.367Z,53.85
2022-10-13T07:31:17.952Z,53.93
2022-10-13T07:33:48.408Z,53.79
2022-10-13T07:36:16.766Z,53.68
2022-10-13T07:38:45.263Z,53.79
2022-10-13T07:41:14.561Z,53.76
2022-10-13T07:43:42.874Z,53.71
2022-10-13T07:46:13.679Z,53.92
2022-10-13T07:48:43.669Z,53.87
2022-10-13T07:51:14.116Z,53.87
2022-10-13T07:53:43.868Z,53.80
2022-10-13T07:56:14.447Z,53.66
2022-10-13T07:58:46.717Z,53.73
2022-10-13T08:01:16.292Z,53.80
2022-10-13T08:03:49.923Z,53.97
2022-10-13T08:06:18.976Z,53.98
2022-10-13T08:08:47.335Z,53.71
2022-10-13T08:11:17.358Z,53.80
2022-10-13T08:13:48.951Z,53.93
2022-10-13T08:16:17.213Z,54.05
2022-10-13T08:18:47.222Z,53.75
2022-10-13T08:21:56.772Z,53.66
2022-10-13T08:24:07.538Z,53.89
2022-10-13T08:26:35.862Z,53.92
2022-10-13T08:31:53.179Z,53.62
2022-10-13T08:34:26.465Z,53.80
2022-10-13T08:36:56.785Z,53.76
2022-10-13T08:39:26.604Z,53.98
2022-10-13T08:41:56.718Z,53.78
2022-10-13T08:47:28.186Z,53.89
2022-10-13T08:50:01.334Z,53.79
2022-10-13T08:52:43.407Z,53.91
2022-10-13T08:55:22.507Z,53.85
2022-10-13T08:57:50.782Z,53.87
2022-10-13T09:00:19.817Z,54.12
2022-10-13T09:02:48.901Z,53.96
2022-10-13T09:05:31.583Z,54.04
2022-10-13T09:08:01.924Z,54.03
2022-10-13T09:10:30.101Z,53.78
2022-10-13T09:13:01.115Z,53.85
2022-10-13T09:15:29.276Z,54.01
2022-10-13T09:18:11.963Z,54.12
2022-10-13T09:20:42.247Z,53.71
2022-10-13T09:23:20.157Z,54.20
2022-10-13T09:25:50.112Z,54.03
2022-10-13T09:28:25.039Z,53.90
2022-10-13T09:31:04.251Z,53.97
2022-10-13T09:33:36.608Z,54.12
2022-10-13T09:36:12.571Z,54.01
2022-10-13T09:38:42.500Z,54.01
2022-10-13T09:41:22.812Z,54.03
2022-10-13T09:44:05.860Z,54.13
2022-10-13T09:46:37.667Z,54.18
2022-10-13T09:49:08.621Z,54.10
2022-10-13T09:51:41.363Z,53.88
2022-10-13T09:54:27.996Z,53.93
2022-10-13T09:57:02.300Z,54.07
2022-10-13T09:59:34.738Z,54.04
2022-10-13T10:02:19.416Z,53.99
2022-10-13T10:04:52.628Z,54.02
2022-10-13T10:07:30.529Z,53.94
2022-10-13T10:10:02.762Z,53.76
2022-10-13T10:12:37.502Z,54.01
2022-10-13T10:15:21.134Z,53.88
2022-10-13T10:17:56.511Z,54.13
2022-10-13T10:20:43.289Z,53.93
2022-10-13T10:23:20.420Z,54.11
2022-10-13T10:25:52.502Z,53.95
2022-10-13T10:28:41.021Z,54.15
2022-10-13T10:31:22.238Z,54.07
2022-10-13T10:34:02.781Z,53.99
2022-10-13T10:36:42.516Z,53.98
2022-10-13T10:39:23.338Z,54.16
2022-10-13T10:41:58.657Z,54.13
2022-10-13T10:44:32.871Z,53.75
2022-10-13T10:47:06.305Z,53.94
2022-10-13T10:49:39.590Z,53.98
2022-10-13T10:52:13.504Z,53.88
2022-10-13T10:54:51.013Z,54.01
2022-10-13T10:57:24.979Z,53.94
2022-10-13T11:00:02.917Z,54.03
2022-10-13T11:02:45.955Z,53.88
2022-10-13T11:05:16.265Z,53.97
2022-10-13T11:07:57.879Z,54.08
2022-10-13T11:10:29.326Z,53.74
2022-10-13T11:13:17.737Z,54.15
2022-10-13T11:15:47.241Z,53.98
2022-10-13T11:19:07.299Z,53.93
2022-10-13T11:22:24.816Z,54.09
2022-10-13T11:25:20.688Z,54.13
2022-10-13T11:27:50.757Z,54.05
2022-10-13T11:30:42.539Z,54.28
2022-10-13T11:33:48.335Z,54.19
2022-10-13T11:36:48.277Z,54.14
2022-10-13T11:39:48.157Z,53.98
2022-10-13T11:42:42.633Z,54.12
2022-10-13T11:45:28.555Z,53.91
2022-10-13T11:48:43.720Z,53.81
2022-10-13T11:51:23.573Z,54.03
2022-10-13T11:53:56.878Z,53.77
2022-10-13T11:56:39.418Z,54.03
2022-10-13T11:59:21.839Z,53.72
2022-10-13T12:01:55.279Z,53.96
2022-10-13T12:04:25.116Z,54.08
2022-10-13T12:07:01.203Z,53.86
2022-10-13T12:09:31.751Z,53.72
2022-10-13T12:12:03.700Z,53.88
2022-10-13T12:14:39.986Z,53.92
2022-10-13T12:17:24.365Z,53.82
2022-10-13T12:19:53.568Z,53.85
2022-10-13T12:22:22.867Z,53.76
2022-10-13T12:25:00.221Z,53.94
2022-10-13T12:27:32.695Z,53.89
2022-10-13T12:30:01.298Z,54.10
2022-10-13T12:32:33.833Z,54.07
2022-10-13T12:35:17.410Z,54.01
2022-10-13T12:37:46.307Z,53.73
2022-10-13T12:40:16.701Z,53.91
2022-10-13T12:42:46.155Z,54.06
2022-10-13T12:45:17.432Z,54.05
2022-10-13T12:47:53.456Z,54.04
2022-10-13T12:50:23.612Z,54.08
2022-10-13T12:52:53.700Z,53.83
2022-10-13T12:55:24.020Z,53.74
2022-10-13T12:57:53.524Z,53.82
2022-10-13T13:00:24.258Z,54.16
2022-10-13T13:02:56.657Z,54.08
2022-10-13T13:05:32.854Z,54.05
2022-10-13T13:08:02.109Z,54.00
2022-10-13T13:10:31.444Z,54.07
2022-10-13T13:13:15.266Z,54.20
2022-10-13T13:15:43.678Z,54.18
2022-10-13T13:18:36.429Z,54.25
2022-10-13T13:21:07.291Z,54.06
2022-10-13T13:23:36.114Z,54.08
2022-10-13T13:26:08.093Z,53.92
2022-10-13T13:28:36.833Z,53.94
2022-10-13T13:31:07.759Z,53.94
2022-10-13T13:33:37.735Z,53.79
2022-10-13T13:36:06.548Z,53.89
2022-10-13T13:38:34.695Z,53.99
2022-10-13T13:41:04.085Z,53.79
2022-10-13T13:43:32.469Z,53.89
2022-10-13T13:46:00.619Z,53.72
2022-10-13T13:48:28.777Z,54.01
2022-10-13T13:50:58.417Z,53.86
2022-10-13T13:53:26.801Z,53.99
2022-10-13T13:55:55.204Z,54.06
2022-10-13T13:58:23.441Z,54.00
2022-10-13T14:00:51.849Z,53.81
2022-10-13T14:03:20.105Z,53.78
2022-10-13T14:05:48.933Z,53.78
2022-10-13T14:08:18.738Z,53.71
2022-10-13T14:10:47.413Z,54.03
2022-10-13T14:13:15.945Z,53.77
2022-10-13T14:15:47.525Z,53.76
2022-10-13T14:18:16.551Z,54.14
2022-10-13T14:20:45.241Z,54.03
2022-10-13T14:23:13.436Z,53.80
2022-10-13T14:25:43.169Z,53.75
2022-10-13T14:28:14.618Z,53.87
2022-10-13T14:30:47.123Z,53.64
2022-10-13T14:33:19.302Z,54.04
2022-10-13T14:35:48.102Z,54.03
2022-10-13T14:38:16.283Z,54.10
2022-10-13T14:40:45.879Z,53.98
2022-10-13T14:43:15.202Z,53.97
2022-10-13T14:45:43.402Z,53.94
2022-10-13T14:48:12.295Z,53.79
2022-10-13T14:50:40.480Z,53.81
2022-10-13T14:53:15.662Z,54.02
2022-10-13T14:55:45.930Z,54.01
2022-10-13T14:58:14.232Z,53.82
2022-10-13T15:00:44.865Z,53.78
2022-10-13T15:03:13.394Z,53.92
2022-10-13T15:05:41.726Z,54.03
2022-10-13T15:08:09.921Z,53.67
2022-10-13T15:10:38.855Z,54.06
2022-10-13T15:13:08.448Z,53.97
2022-10-13T15:15:36.675Z,53.86
2022-10-13T15:18:04.997Z,53.72
2022-10-13T15:20:33.472Z,53.86
2022-10-13T15:23:01.876Z,53.99
2022-10-13T15:25:30.106Z,53.99
2022-10-13T15:27:58.226Z,54.07
2022-10-13T15:30:28.076Z,54.17
2022-10-13T15:32:56.246Z,54.03
2022-10-13T15:35:24.406Z,54.16
2022-10-13T15:37:52.951Z,53.98
2022-10-13T15:40:21.128Z,54.04
2022-10-13T15:42:49.295Z,53.93
2022-10-13T15:45:17.523Z,54.25
2022-10-13T15:47:47.145Z,54.10
2022-10-13T15:50:15.283Z,54.04
2022-10-13T15:52:43.763Z,54.03
2022-10-13T15:55:13.680Z,54.10
2022-10-13T15:57:42.372Z,54.31
2022-10-13T16:00:13.371Z,54.15
2022-10-13T16:02:42.015Z,54.25
2022-10-13T16:05:14.530Z,54.29
2022-10-13T16:07:43.752Z,54.15
2022-10-13T16:10:13.899Z,54.05
2022-10-13T16:12:46.944Z,54.07
2022-10-13T16:15:19.835Z,54.30
2022-10-13T16:17:48.219Z,54.27
2022-10-13T16:20:18.226Z,53.94
2022-10-13T16:22:47.310Z,53.93
2022-10-13T16:25:15.765Z,54.26
2022-10-13T16:27:44.703Z,54.28
2022-10-13T16:30:13.904Z,54.06
2022-10-13T16:32:42.415Z,54.03
2022-10-13T16:35:11.361Z,54.51
2022-10-13T16:37:41.400Z,54.12
2022-10-13T16:40:10.694Z,54.18
2022-10-13T16:42:39.354Z,53.98
2022-10-13T16:45:08.851Z,54.18
2022-10-13T16:47:39.276Z,54.31
2022-10-13T16:50:09.980Z,54.06
2022-10-13T16:52:41.177Z,54.02
2022-10-13T16:55:11.716Z,54.18
2022-10-13T16:57:40.116Z,54.23
2022-10-13T17:00:10.268Z,54.01
2022-10-13T17:02:38.747Z,54.19
2022-10-13T17:05:07.523Z,53.99
2022-10-13T17:07:36.034Z,54.17
2022-10-13T17:10:04.464Z,53.99
2022-10-13T17:12:35.875Z,53.99
2022-10-13T17:15:04.604Z,54.22
2022-10-13T17:17:35.155Z,53.94
2022-10-13T17:20:04.235Z,53.80
2022-10-13T17:22:32.899Z,54.08
2022-10-13T17:25:01.743Z,54.00
2022-10-13T17:27:29.996Z,54.17
2022-10-13T17:30:00.126Z,54.16
2022-10-13T17:32:28.730Z,54.24
2022-10-13T17:34:57.321Z,53.94
2022-10-13T17:37:26.582Z,54.01
2022-10-13T17:39:55.002Z,54.17
2022-10-13T17:42:24.020Z,54.23
2022-10-13T17:44:53.263Z,53.87
2022-10-13T17:47:23.254Z,53.96
2022-10-13T17:49:52.057Z,53.96
2022-10-13T17:52:20.908Z,54.17
2022-10-13T17:54:50.055Z,53.94
2022-10-13T17:57:18.973Z,54.08
2022-10-13T17:59:47.891Z,54.17
2022-10-13T18:02:16.591Z,53.97
2022-10-13T18:04:46.898Z,54.00
2022-10-13T18:07:15.214Z,54.13
2022-10-13T18:09:44.714Z,53.88
2022-10-13T18:12:13.362Z,54.20
2022-10-13T18:14:42.111Z,53.99
2022-10-13T18:17:10.298Z,53.96
2022-10-13T18:19:40.474Z,54.23
2022-10-13T18:22:10.220Z,53.88
2022-10-13T18:24:40.164Z,53.91
2022-10-13T18:27:08.829Z,54.03
2022-10-13T18:29:39.119Z,54.22
2022-10-13T18:32:07.339Z,54.16
2022-10-13T18:34:36.399Z,54.07
2022-10-13T18:37:05.740Z,53.87
2022-10-13T18:39:35.610Z,54.02
2022-10-13T18:42:04.275Z,54.09
2022-10-13T18:44:32.483Z,53.85
2022-10-13T18:47:00.801Z,53.96
2022-10-13T18:49:33.262Z,54.10
2022-10-13T18:52:02.420Z,53.99
2022-10-13T18:54:31.505Z,54.16
2022-10-13T18:57:01.087Z,54.14
2022-10-13T18:59:29.506Z,54.01
2022-10-13T19:01:57.858Z,53.90
2022-10-13T19:04:26.648Z,54.06
2022-10-13T19:06:54.960Z,54.07
2022-10-13T19:09:24.974Z,53.82
2022-10-13T19:11:53.642Z,53.96
2022-10-13T19:14:23.711Z,53.90
2022-10-13T19:16:52.011Z,53.84
2022-10-13T19:19:20.643Z,53.84
2022-10-13T19:21:49.426Z,54.05
2022-10-13T19:24:17.992Z,53.90
2022-10-13T19:26:46.366Z,54.04
2022-10-13T19:29:16.444Z,53.87
2022-10-13T19:31:46.605Z,54.07
2022-10-13T19:34:15.435Z,54.00
2022-10-13T19:36:46.264Z,53.93
2022-10-13T19:39:17.748Z,54.19
2022-10-13T19:41:47.668Z,54.01
2022-10-13T19:44:16.792Z,53.84
2022-10-13T19:46:48.741Z,53.90
2022-10-13T19:49:19.637Z,54.02
2022-10-13T19:51:49.259Z,54.00
2022-10-13T19:54:19.620Z,53.82
2022-10-13T19:56:50.686Z,53.88
2022-10-13T19:59:19.709Z,54.02
2022-10-13T20:01:50.418Z,53.97
2022-10-13T20:04:20.633Z,54.13
2022-10-13T20:06:49.290Z,54.24
2022-10-13T20:09:18.101Z,54.25
2022-10-13T20:11:47.075Z,54.21
2022-10-13T20:14:15.286Z,54.16
2022-10-13T20:16:43.645Z,54.36
2022-10-13T20:19:15.291Z,54.30
2022-10-13T20:21:44.236Z,54.29
2022-10-13T20:24:12.448Z,54.39
2022-10-13T20:26:41.156Z,54.46
2022-10-13T20:29:09.615Z,54.32
2022-10-13T20:31:38.195Z,54.54
2022-10-13T20:34:15.222Z,54.66
2022-10-13T20:36:43.317Z,54.44
2022-10-13T20:39:11.512Z,54.39
2022-10-13T20:41:40.962Z,54.32
2022-10-13T20:44:10.780Z,54.32
2022-10-13T20:46:38.972Z,54.16
2022-10-13T20:49:11.779Z,54.09
2022-10-13T20:51:42.018Z,54.26
2022-10-13T20:54:19.688Z,54.41
2022-10-13T20:56:48.362Z,54.14
2022-10-13T20:59:16.536Z,54.49
2022-10-13T21:01:44.997Z,54.47
2022-10-13T21:04:13.391Z,54.10
2022-10-13T21:06:43.468Z,53.90
2022-10-13T21:09:12.194Z,54.10
2022-10-13T21:11:41.452Z,54.08
2022-10-13T21:14:10.845Z,54.24
2022-10-13T21:16:39.370Z,54.45
2022-10-13T21:19:08.476Z,54.34
2022-10-13T21:21:37.855Z,54.28
2022-10-13T21:24:08.970Z,54.00
2022-10-13T21:26:37.794Z,54.15
2022-10-13T21:29:06.281Z,54.02
2022-10-13T21:31:34.420Z,53.98
2022-10-13T21:34:03.249Z,54.16
2022-10-13T21:36:33.344Z,54.24
2022-10-13T21:39:03.334Z,54.17
2022-10-13T21:41:33.035Z,54.05
2022-10-13T21:44:01.142Z,54.08
2022-10-13T21:46:33.210Z,53.90
2022-10-13T21:49:02.807Z,54.11
2022-10-13T21:51:32.688Z,54.15
2022-10-13T21:54:03.313Z,53.78
2022-10-13T21:56:34.168Z,54.13
2022-10-13T21:59:02.742Z,54.10
2022-10-13T22:01:31.159Z,54.16
2022-10-13T22:04:02.628Z,53.94
2022-10-13T22:06:34.098Z,54.15
2022-10-13T22:09:05.016Z,53.85
2022-10-13T22:11:37.236Z,53.95
2022-10-13T22:14:06.080Z,53.89
2022-10-13T22:16:36.576Z,54.14
2022-10-13T22:19:05.200Z,54.17
2022-10-13T22:21:35.426Z,54.12
2022-10-13T22:24:06.962Z,53.92
2022-10-13T22:26:39.010Z,54.02
2022-10-13T22:29:08.342Z,53.92
2022-10-13T22:31:37.193Z,53.83
2022-10-13T22:34:07.148Z,54.18
2022-10-13T22:36:35.817Z,54.10
2022-10-13T22:39:05.548Z,53.91
2022-10-13T22:41:35.627Z,54.13
2022-10-13T22:44:05.417Z,53.95
2022-10-13T22:46:36.016Z,54.08
2022-10-13T22:49:04.515Z,53.93
2022-10-13T22:51:35.767Z,54.09
2022-10-13T22:54:04.085Z,53.90
2022-10-13T22:56:34.353Z,53.97
2022-10-13T22:59:05.802Z,54.19
2022-10-13T23:01:34.187Z,54.06
2022-10-13T23:04:02.556Z,54.33
2022-10-13T23:06:33.086Z,54.19
2022-10-13T23:09:02.391Z,54.36
2022-10-13T23:11:30.535Z,54.21
2022-10-13T23:13:58.723Z,54.33
2022-10-13T23:16:28.690Z,54.03
2022-10-13T23:18:57.015Z,54.16
2022-10-13T23:21:27.278Z,54.02
2022-10-13T23:23:56.945Z,54.11
2022-10-13T23:26:25.569Z,54.30
2022-10-13T23:28:53.871Z,54.26
2022-10-13T23:31:22.150Z,54.07
2022-10-13T23:33:51.911Z,54.29
2022-10-13T23:36:21.974Z,54.11
2022-10-13T23:38:50.351Z,54.34
2022-10-13T23:41:18.508Z,54.08
2022-10-13T23:43:46.835Z,54.13
2022-10-13T23:46:14.965Z,54.10
2022-10-13T23:48:43.248Z,54.31
2022-10-13T23:51:14.450Z,54.34
2022-10-13T23:53:43.459Z,54.07
2022-10-13T23:56:13.052Z,54.37
2022-10-13T23:58:43.574Z,54.11
